Terminal Aerodrome Forecast
Issued by NWS

Home | Current Version | Previous Version | Text Only | Print | Product List | Glossary On
Versions: 1 2 3 4 5 6 7 8 9 10 11 12 13 14 15 16 17 18
519
FTUS44 KLZK 050744 AAA
TAFBPK
TAF AMD
KBPK 050744Z 0508/0606 00000KT 1/2SM FG VV001
      TEMPO 0511/0514 2SM BR OVC005
     FM051400 13003KT P6SM SCT005 BKN250
     FM051800 13008KT P6SM VCSH SCT025 OVC050 PROB30 0520/0524 5SM
      -RA BR BKN025
     FM060000 VRB05KT 4SM -RA BR BKN015 OVC025=

USA.gov is the U.S. government's official web portal to all federal, state and local government web resources and services.